Terminal Aerodrome Forecast
Issued by NWS Memphis, TN

Home | Current Version | Previous Version | Text Only | Print | Product List | Glossary On
Versions: 1 2 3 4 5 6 7 8 9 10 11 12 13 14 15 16 17 18 19 20 21 22
651
FTUS44 KMEG 231137
TAFJBR
TAF
KJBR 231137Z 2312/2412 27008KT 6SM RA BR VCTS SCT007CB BKN020CB
      TEMPO 2312/2316 2SM -SHRA BR OVC005
     FM231600 26005KT 4SM -SHRA BR OVC004
     FM240000 06005KT 4SM BR OVC003
     FM240400 05004KT 4SM BR VCTS OVC003CB=

USA.gov is the U.S. government's official web portal to all federal, state and local government web resources and services.